Clearfield, Kentucky
Current Conditions -  °F | °C
As of 12:50 AM on Sunday 26 Oct 2014 (Local Time) from KSYM Reporting Station
Clear Clear  
Wind Chill: 63°   Ceiling: Unl
Heat Index: 63°   Visibility: 10mi
Dew Point: 55°   Wind: 6mph
Humidity: 77%   Direction: 260°W
Pressure: 29.95"   Gusts: NA
Location:  38.16°N, 83.43°W
Report Text: KSYM 260450Z AUTO 26005KT 10SM CLR 17/13 A2995 RMK AO2
Loading
Personal Weather Stations






























Interactive Weather Map
Tropical Storm Tracking
New forecast layout! Learn more

10-Day Weather Forecast

Advertisements
Track Severe Weather on mobile